createdAt,value
2022-09-04T00:02:22.065Z,101202.81
2022-09-04T00:05:02.692Z,101201.34
2022-09-04T00:07:53.598Z,101196.03
2022-09-04T00:10:29.855Z,101199.63
2022-09-04T00:13:21.558Z,101201.47
2022-09-04T00:16:07.588Z,101201.47
2022-09-04T00:18:42.808Z,101198.22
2022-09-04T00:21:35.610Z,101193.13
2022-09-04T00:24:04.554Z,101202.28
2022-09-04T00:26:50.741Z,101197.19
2022-09-04T00:29:20.992Z,101189.13
2022-09-04T00:31:56.314Z,101196.13
2022-09-04T00:34:53.034Z,101198.16
2022-09-04T00:37:24.230Z,101195.03
2022-09-04T00:40:00.713Z,101198.75
2022-09-04T00:43:06.785Z,101206.47
2022-09-04T00:45:51.218Z,101207.72
2022-09-04T00:48:46.322Z,101207.41
2022-09-04T00:51:47.763Z,101207.53
2022-09-04T00:54:23.920Z,101207.00
2022-09-04T00:57:19.219Z,101216.13
2022-09-04T01:00:09.009Z,101212.75
2022-09-04T01:03:01.126Z,101211.91
2022-09-04T01:05:45.660Z,101213.81
2022-09-04T01:08:27.466Z,101220.31
2022-09-04T01:11:33.083Z,101228.81
2022-09-04T01:14:44.988Z,101226.59
2022-09-04T01:17:32.317Z,101224.63
2022-09-04T01:20:14.937Z,101236.09
2022-09-04T01:23:07.223Z,101235.16
2022-09-04T01:26:12.008Z,101236.09
2022-09-04T01:29:13.535Z,101234.00
2022-09-04T01:31:47.307Z,101234.63
2022-09-04T01:34:42.029Z,101227.44
2022-09-04T01:38:11.166Z,101235.63
2022-09-04T01:41:00.308Z,101234.78
2022-09-04T01:43:27.611Z,101235.88
2022-09-04T01:46:22.303Z,101231.81
2022-09-04T01:49:19.383Z,101225.44
2022-09-04T01:52:08.144Z,101228.63
2022-09-04T01:54:56.985Z,101227.66
2022-09-04T01:57:47.311Z,101229.25
2022-09-04T02:00:17.437Z,101237.44
2022-09-04T02:03:10.934Z,101229.78
2022-09-04T02:05:45.755Z,101232.25
2022-09-04T02:08:31.218Z,101232.56
2022-09-04T02:11:15.864Z,101229.50
2022-09-04T02:14:09.287Z,101227.28
2022-09-04T02:17:18.328Z,101230.72
2022-09-04T02:19:59.780Z,101233.03
2022-09-04T02:22:44.945Z,101238.34
2022-09-04T02:25:31.759Z,101232.47
2022-09-04T02:28:08.257Z,101234.88
2022-09-04T02:30:54.558Z,101229.75
2022-09-04T02:33:59.472Z,101234.31
2022-09-04T02:37:01.258Z,101233.72
2022-09-04T02:39:56.254Z,101233.72
2022-09-04T02:42:27.826Z,101233.59
2022-09-04T02:45:12.828Z,101233.72
2022-09-04T02:47:56.240Z,101232.31
2022-09-04T02:51:01.128Z,101229.91
2022-09-04T02:53:52.678Z,101245.84
2022-09-04T02:56:47.883Z,101235.94
2022-09-04T02:59:36.935Z,101232.31
2022-09-04T03:02:06.246Z,101241.16
2022-09-04T03:04:50.060Z,101237.22
2022-09-04T03:07:39.744Z,101239.75
2022-09-04T03:10:11.958Z,101234.06
2022-09-04T03:13:03.928Z,101236.59
2022-09-04T03:15:46.461Z,101229.03
2022-09-04T03:18:51.464Z,101235.41
2022-09-04T03:21:27.994Z,101230.09
2022-09-04T03:24:00.134Z,101237.19
2022-09-04T03:26:31.855Z,101235.00
2022-09-04T03:29:10.144Z,101237.84
2022-09-04T03:31:56.153Z,101242.94
2022-09-04T03:34:36.719Z,101248.91
2022-09-04T03:37:28.784Z,101253.13
2022-09-04T03:39:58.746Z,101253.34
2022-09-04T03:42:40.572Z,101251.88
2022-09-04T03:45:10.826Z,101255.06
2022-09-04T03:47:47.795Z,101251.97
2022-09-04T03:50:20.983Z,101252.28
2022-09-04T03:52:50.688Z,101259.50
2022-09-04T03:55:25.304Z,101262.16
2022-09-04T03:58:10.954Z,101258.00
2022-09-04T04:00:57.333Z,101250.47
2022-09-04T04:03:31.986Z,101260.75
2022-09-04T04:06:23.291Z,101265.53
2022-09-04T04:09:04.415Z,101261.38
2022-09-04T04:11:45.161Z,101270.50
2022-09-04T04:14:30.935Z,101267.94
2022-09-04T04:17:06.094Z,101275.91
2022-09-04T04:20:14.851Z,101276.84
2022-09-04T04:23:37.549Z,101275.44
2022-09-04T04:26:31.586Z,101271.72
2022-09-04T04:29:38.799Z,101280.50
2022-09-04T04:32:15.057Z,101279.66
2022-09-04T04:34:58.466Z,101283.16
2022-09-04T04:37:37.055Z,101277.75
2022-09-04T04:40:15.675Z,101290.03
2022-09-04T04:42:55.052Z,101280.41
2022-09-04T04:45:50.561Z,101289.72
2022-09-04T04:48:40.483Z,101288.66
2022-09-04T04:51:40.686Z,101293.13
2022-09-04T04:54:30.144Z,101299.78
2022-09-04T04:57:28.042Z,101301.66
2022-09-04T05:00:22.866Z,101304.97
2022-09-04T05:03:32.318Z,101302.31
2022-09-04T05:06:14.771Z,101310.88
2022-09-04T05:09:10.059Z,101316.47
2022-09-04T05:11:55.060Z,101325.66
2022-09-04T05:15:00.749Z,101329.25
2022-09-04T05:17:40.660Z,101338.16
2022-09-04T05:20:32.436Z,101352.25
2022-09-04T05:23:12.906Z,101340.69
2022-09-04T05:25:52.609Z,101357.91
2022-09-04T05:28:46.957Z,101352.44
2022-09-04T05:31:20.185Z,101363.03
2022-09-04T05:34:02.109Z,101360.44
2022-09-04T05:36:45.935Z,101370.03
2022-09-04T05:39:32.922Z,101375.44
2022-09-04T05:42:37.875Z,101380.22
2022-09-04T05:45:24.209Z,101381.06
2022-09-04T05:48:19.340Z,101379.19
2022-09-04T05:50:46.596Z,101383.72
2022-09-04T05:53:51.339Z,101392.03
2022-09-04T05:56:21.355Z,101396.84
2022-09-04T05:59:06.058Z,101398.53
2022-09-04T06:01:52.476Z,101398.72
2022-09-04T06:04:44.247Z,101394.94
2022-09-04T06:07:14.698Z,101396.44
2022-09-04T06:09:48.324Z,101404.88
2022-09-04T06:12:36.353Z,101406.25
2022-09-04T06:15:25.462Z,101408.59
2022-09-04T06:18:12.952Z,101404.16
2022-09-04T06:20:51.333Z,101405.66
2022-09-04T06:23:37.319Z,101415.78
2022-09-04T06:26:23.086Z,101405.28
2022-09-04T06:29:05.806Z,101408.09
2022-09-04T06:31:36.642Z,101400.66
2022-09-04T06:34:10.985Z,101412.56
2022-09-04T06:36:56.338Z,101409.69
2022-09-04T06:39:45.203Z,101412.25
2022-09-04T06:42:26.479Z,101413.13
2022-09-04T06:45:26.947Z,101419.47
2022-09-04T06:48:23.019Z,101414.81
2022-09-04T06:50:56.999Z,101417.06
2022-09-04T06:53:39.301Z,101422.94
2022-09-04T06:56:35.781Z,101428.69
2022-09-04T06:59:27.815Z,101425.59
2022-09-04T07:02:08.139Z,101427.75
2022-09-04T07:04:51.194Z,101425.09
2022-09-04T07:07:27.048Z,101431.25
2022-09-04T07:10:10.218Z,101440.50
2022-09-04T07:13:08.760Z,101439.00
2022-09-04T07:16:11.999Z,101445.47
2022-09-04T07:18:52.214Z,101442.41
2022-09-04T07:21:35.631Z,101449.22
2022-09-04T07:24:09.106Z,101434.66
2022-09-04T07:27:15.709Z,101442.19
2022-09-04T07:29:48.679Z,101440.78
2022-09-04T07:32:22.630Z,101451.75
2022-09-04T07:35:00.892Z,101446.19
2022-09-04T07:37:39.957Z,101446.63
2022-09-04T07:40:14.980Z,101452.03
2022-09-04T07:42:51.123Z,101444.34
2022-09-04T07:45:38.416Z,101443.91
2022-09-04T07:48:35.774Z,101452.94
2022-09-04T07:51:25.944Z,101457.69
2022-09-04T07:54:22.627Z,101458.09
2022-09-04T07:56:59.066Z,101456.56
2022-09-04T07:59:51.116Z,101455.06
2022-09-04T08:02:56.550Z,101464.03
2022-09-04T08:05:31.443Z,101463.13
2022-09-04T08:08:08.324Z,101475.13
2022-09-04T08:11:13.461Z,101472.97
2022-09-04T08:14:02.711Z,101480.47
2022-09-04T08:16:53.417Z,101471.88
2022-09-04T08:19:41.726Z,101477.94
2022-09-04T08:22:13.404Z,101475.44
2022-09-04T08:24:53.801Z,101471.94
2022-09-04T08:27:44.473Z,101473.03
2022-09-04T08:30:14.269Z,101473.28
2022-09-04T08:32:53.176Z,101477.91
2022-09-04T08:35:55.040Z,101476.34
2022-09-04T08:38:40.520Z,101480.94
2022-09-04T08:41:13.334Z,101479.59
2022-09-04T08:44:09.481Z,101483.41
2022-09-04T08:47:17.779Z,101486.19
2022-09-04T08:50:12.859Z,101483.50
2022-09-04T08:52:45.981Z,101482.88
2022-09-04T08:55:50.615Z,101482.13
2022-09-04T08:58:38.693Z,101483.94
2022-09-04T09:01:30.501Z,101482.44
2022-09-04T09:04:14.971Z,101483.41
2022-09-04T09:07:06.888Z,101492.72
2022-09-04T09:09:47.810Z,101496.31
2022-09-04T09:12:40.890Z,101491.94
2022-09-04T09:15:13.995Z,101484.13
2022-09-04T09:18:03.509Z,101476.09
2022-09-04T09:20:54.340Z,101476.41
2022-09-04T09:23:37.994Z,101480.97
2022-09-04T09:26:26.630Z,101473.28
2022-09-04T09:28:56.607Z,101470.78
2022-09-04T09:31:46.099Z,101478.16
2022-09-04T09:34:53.845Z,101483.94
2022-09-04T09:37:34.156Z,101478.94
2022-09-04T09:40:13.654Z,101482.16
2022-09-04T09:42:59.958Z,101475.06
2022-09-04T09:45:54.505Z,101479.75
2022-09-04T09:48:54.967Z,101474.72
2022-09-04T09:52:00.808Z,101476.00
2022-09-04T09:54:52.508Z,101473.66
2022-09-04T09:57:41.171Z,101472.94
2022-09-04T10:00:15.253Z,101465.09
2022-09-04T10:03:20.248Z,101466.34
2022-09-04T10:06:13.092Z,101465.69
2022-09-04T10:09:09.231Z,101467.78
2022-09-04T10:11:59.346Z,101463.75
2022-09-04T10:14:50.849Z,101472.78
2022-09-04T10:17:48.803Z,101470.22
2022-09-04T10:20:40.317Z,101461.28
2022-09-04T10:23:28.779Z,101458.84
2022-09-04T10:26:14.146Z,101469.72
2022-09-04T10:29:09.938Z,101475.06
2022-09-04T10:31:37.048Z,101471.69
2022-09-04T10:34:38.309Z,101471.00
2022-09-04T10:37:14.374Z,101478.03
2022-09-04T10:40:27.805Z,101473.34
2022-09-04T10:43:22.643Z,101475.88
2022-09-04T10:46:01.115Z,101484.06
2022-09-04T10:49:03.855Z,101479.81
2022-09-04T10:51:56.423Z,101488.81
2022-09-04T10:54:57.135Z,101479.59
2022-09-04T10:57:43.302Z,101479.53
2022-09-04T11:00:19.059Z,101492.50
2022-09-04T11:03:04.593Z,101480.72
2022-09-04T11:05:32.217Z,101484.22
2022-09-04T11:08:25.929Z,101484.16
2022-09-04T11:11:03.414Z,101486.09
2022-09-04T11:14:08.262Z,101487.56
2022-09-04T11:16:57.364Z,101485.66
2022-09-04T11:20:04.242Z,101491.19
2022-09-04T11:22:55.798Z,101497.75
2022-09-04T11:25:38.956Z,101490.97
2022-09-04T11:28:44.277Z,101471.56
2022-09-04T11:31:29.418Z,101484.25
2022-09-04T11:34:13.870Z,101474.75
2022-09-04T11:37:15.489Z,101479.72
2022-09-04T11:39:48.165Z,101470.41
2022-09-04T11:42:35.606Z,101464.41
2022-09-04T11:45:41.406Z,101470.91
2022-09-04T11:48:37.702Z,101463.88
2022-09-04T11:51:34.348Z,101458.03
2022-09-04T11:54:30.714Z,101457.25
2022-09-04T11:57:23.107Z,101450.69
2022-09-04T12:00:17.368Z,101453.06
2022-09-04T12:03:11.729Z,101455.25
2022-09-04T12:05:54.824Z,101451.41
2022-09-04T12:08:46.984Z,101441.94
2022-09-04T12:11:41.782Z,101447.50
2022-09-04T12:14:40.600Z,101449.31
2022-09-04T12:17:26.123Z,101444.44
2022-09-04T12:20:05.085Z,101442.34
2022-09-04T12:23:02.654Z,101445.38
2022-09-04T12:25:35.400Z,101444.59
2022-09-04T12:28:26.697Z,101447.97
2022-09-04T12:31:08.614Z,101453.06
2022-09-04T12:34:08.673Z,101452.38
2022-09-04T12:37:01.340Z,101454.09
2022-09-04T12:39:57.350Z,101445.78
2022-09-04T12:42:46.039Z,101447.28
2022-09-04T12:45:24.956Z,101453.25
2022-09-04T12:48:20.197Z,101450.44
2022-09-04T12:51:16.581Z,101449.88
2022-09-04T12:53:54.323Z,101445.13
2022-09-04T12:56:26.206Z,101449.16
2022-09-04T12:59:25.757Z,101454.47
2022-09-04T13:02:21.343Z,101448.53
2022-09-04T13:05:02.436Z,101445.38
2022-09-04T13:07:50.288Z,101449.53
2022-09-04T13:10:43.921Z,101446.00
2022-09-04T13:13:23.588Z,101448.47
2022-09-04T13:16:29.517Z,101452.47
2022-09-04T13:19:13.763Z,101457.88
2022-09-04T13:21:44.254Z,101456.72
2022-09-04T13:24:35.735Z,101457.16
2022-09-04T13:27:26.370Z,101460.28
2022-09-04T13:30:03.712Z,101460.31
2022-09-04T13:32:30.964Z,101462.00
2022-09-04T13:35:03.874Z,101466.63
2022-09-04T13:38:01.093Z,101459.66
2022-09-04T13:40:55.861Z,101466.16
2022-09-04T13:43:41.165Z,101468.25
2022-09-04T13:46:12.776Z,101466.53
2022-09-04T13:48:44.300Z,101463.75
2022-09-04T13:51:17.541Z,101468.63
2022-09-04T13:54:12.304Z,101479.94
2022-09-04T13:56:58.563Z,101471.59
2022-09-04T13:59:25.796Z,101481.69
2022-09-04T14:01:55.939Z,101486.22
2022-09-04T14:04:26.465Z,101472.09
2022-09-04T14:07:06.943Z,101464.88
2022-09-04T14:09:54.456Z,101467.84
2022-09-04T14:12:39.831Z,101468.25
2022-09-04T14:15:38.016Z,101466.16
2022-09-04T14:18:45.345Z,101470.22
2022-09-04T14:21:32.757Z,101480.09
2022-09-04T14:24:18.310Z,101471.50
2022-09-04T14:27:33.283Z,101486.31
2022-09-04T14:30:11.239Z,101476.44
2022-09-04T14:32:41.916Z,101472.25
2022-09-04T14:35:34.265Z,101473.91
2022-09-04T14:38:29.246Z,101478.34
2022-09-04T14:41:18.616Z,101478.94
2022-09-04T14:43:45.717Z,101482.28
2022-09-04T14:46:32.695Z,101482.31
2022-09-04T14:49:09.129Z,101478.06
2022-09-04T14:51:43.542Z,101488.72
2022-09-04T14:54:15.746Z,101486.47
2022-09-04T14:56:51.063Z,101484.16
2022-09-04T14:59:24.956Z,101486.41
2022-09-04T15:02:46.038Z,101479.19
2022-09-04T15:05:13.287Z,101479.84
2022-09-04T15:07:43.627Z,101484.00
2022-09-04T15:10:29.932Z,101476.16
2022-09-04T15:13:29.095Z,101477.19
2022-09-04T15:16:29.599Z,101476.06
2022-09-04T15:19:28.447Z,101476.50
2022-09-04T15:22:15.697Z,101476.31
2022-09-04T15:24:58.366Z,101481.91
2022-09-04T15:27:46.228Z,101476.16
2022-09-04T15:30:24.561Z,101485.22
2022-09-04T15:33:12.428Z,101478.22
2022-09-04T15:35:40.652Z,101481.75
2022-09-04T15:38:21.067Z,101480.19
2022-09-04T15:41:15.143Z,101478.84
2022-09-04T15:43:49.811Z,101478.06
2022-09-04T15:46:25.626Z,101483.06
2022-09-04T15:49:26.367Z,101487.56
2022-09-04T15:51:58.141Z,101487.38
2022-09-04T15:54:32.961Z,101486.78
2022-09-04T15:57:17.750Z,101498.19
2022-09-04T15:59:44.785Z,101495.69
2022-09-04T16:02:36.353Z,101493.84
2022-09-04T16:05:41.553Z,101490.00
2022-09-04T16:08:25.872Z,101488.06
2022-09-04T16:11:16.592Z,101487.44
2022-09-04T16:14:03.875Z,101488.44
2022-09-04T16:16:42.192Z,101493.75
2022-09-04T16:19:24.382Z,101497.56
2022-09-04T16:22:08.025Z,101502.75
2022-09-04T16:24:35.928Z,101496.25
2022-09-04T16:27:07.152Z,101498.88
2022-09-04T16:29:51.081Z,101494.53
2022-09-04T16:32:21.353Z,101502.59
2022-09-04T16:35:09.363Z,101510.28
2022-09-04T16:37:42.440Z,101505.69
2022-09-04T16:40:14.515Z,101508.03
2022-09-04T16:42:49.996Z,101512.38
2022-09-04T16:45:22.607Z,101513.53
2022-09-04T16:47:59.087Z,101522.25
2022-09-04T16:50:57.705Z,101526.56
2022-09-04T16:53:39.816Z,101525.50
2022-09-04T16:56:45.558Z,101526.53
2022-09-04T16:59:20.196Z,101527.09
2022-09-04T17:02:01.445Z,101533.44
2022-09-04T17:04:40.301Z,101535.13
2022-09-04T17:07:08.740Z,101535.50
2022-09-04T17:09:55.730Z,101535.16
2022-09-04T17:12:47.490Z,101538.41
2022-09-04T17:15:33.972Z,101530.63
2022-09-04T17:18:06.465Z,101539.25
2022-09-04T17:21:39.739Z,101536.50
2022-09-04T17:29:04.938Z,101537.13
2022-09-04T17:29:08.420Z,101538.59
2022-09-04T17:29:48.810Z,101541.25
2022-09-04T17:33:46.116Z,101548.44
2022-09-04T17:40:38.844Z,101542.34
2022-09-04T17:40:53.296Z,101548.34
2022-09-04T17:41:56.976Z,101552.00
2022-09-04T17:44:46.740Z,101556.94
2022-09-04T17:47:26.406Z,101559.78
2022-09-04T17:49:54.107Z,101567.44
2022-09-04T17:52:28.217Z,101568.81
2022-09-04T17:55:13.657Z,101567.22
2022-09-04T17:57:46.989Z,101565.47
2022-09-04T18:00:26.008Z,101578.09
2022-09-04T18:02:56.354Z,101582.22
2022-09-04T18:05:28.151Z,101584.41
2022-09-04T18:08:33.003Z,101582.56
2022-09-04T18:11:18.462Z,101588.31
2022-09-04T18:13:54.297Z,101593.00
2022-09-04T18:16:26.038Z,101596.59
2022-09-04T18:18:55.902Z,101593.50
2022-09-04T18:21:29.766Z,101595.31
2022-09-04T18:24:00.833Z,101593.81
2022-09-04T18:26:40.137Z,101601.81
2022-09-04T18:30:10.055Z,101601.81
2022-09-04T18:37:11.131Z,101607.06
2022-09-04T18:37:24.932Z,101606.22
2022-09-04T18:38:19.701Z,101606.09
2022-09-04T18:41:43.359Z,101608.22
2022-09-04T18:50:21.734Z,101611.91
2022-09-04T18:50:32.334Z,101616.31
2022-09-04T18:50:45.517Z,101611.78
2022-09-04T18:52:19.835Z,101619.41
2022-09-04T18:54:54.084Z,101627.44
2022-09-04T18:57:27.260Z,101632.34
2022-09-04T19:00:08.453Z,101633.06
2022-09-04T19:02:54.147Z,101640.94
2022-09-04T19:05:22.328Z,101639.97
2022-09-04T19:07:59.844Z,101636.88
2022-09-04T19:10:30.297Z,101632.06
2022-09-04T19:13:08.302Z,101633.00
2022-09-04T19:15:49.383Z,101634.72
2022-09-04T19:18:26.510Z,101641.31
2022-09-04T19:21:14.486Z,101637.22
2022-09-04T19:23:45.114Z,101635.00
2022-09-04T19:26:27.254Z,101633.13
2022-09-04T19:29:00.628Z,101635.22
2022-09-04T19:31:35.283Z,101635.41
2022-09-04T19:34:38.306Z,101631.63
2022-09-04T19:39:09.992Z,101639.50
2022-09-04T19:44:22.903Z,101639.72
2022-09-04T19:46:13.994Z,101637.59
2022-09-04T19:46:29.350Z,101637.00
2022-09-04T19:53:21.541Z,101637.00
2022-09-04T19:53:22.120Z,101638.16
2022-09-04T19:55:47.303Z,101641.09
2022-09-04T19:58:18.715Z,101644.06
2022-09-04T20:00:58.141Z,101638.75
2022-09-04T20:03:33.431Z,101641.72
2022-09-04T20:06:21.532Z,101653.19
2022-09-04T20:08:54.512Z,101649.69
2022-09-04T20:11:45.884Z,101654.28
2022-09-04T20:14:29.124Z,101651.78
2022-09-04T20:17:01.182Z,101643.31
2022-09-04T20:19:38.861Z,101645.28
2022-09-04T20:22:27.342Z,101648.44
2022-09-04T20:25:06.734Z,101650.75
2022-09-04T20:27:47.969Z,101646.50
2022-09-04T20:30:24.713Z,101654.16
2022-09-04T20:33:01.771Z,101658.84
2022-09-04T20:35:35.481Z,101655.47
2022-09-04T20:38:46.061Z,101658.25
2022-09-04T20:41:32.341Z,101661.53
2022-09-04T20:44:25.472Z,101660.16
2022-09-04T20:52:42.420Z,101670.25
2022-09-04T20:52:55.658Z,101667.75
2022-09-04T20:53:23.148Z,101670.06
2022-09-04T20:55:59.176Z,101666.75
2022-09-04T21:03:09.328Z,101666.66
2022-09-04T21:03:09.890Z,101671.88
2022-09-04T21:04:42.082Z,101672.81
2022-09-04T21:07:35.309Z,101670.16
2022-09-04T21:10:11.513Z,101680.97
2022-09-04T21:13:13.815Z,101683.50
2022-09-04T21:15:51.703Z,101684.84
2022-09-04T21:19:28.288Z,101689.59
2022-09-04T21:21:59.698Z,101695.66
2022-09-04T21:24:51.797Z,101706.81
2022-09-04T21:27:23.818Z,101699.66
2022-09-04T21:30:03.194Z,101700.38
2022-09-04T21:32:45.276Z,101697.34
2022-09-04T21:35:22.720Z,101709.72
2022-09-04T21:37:49.842Z,101700.13
2022-09-04T21:40:50.921Z,101701.22
2022-09-04T21:43:35.788Z,101701.69
2022-09-04T21:46:51.746Z,101707.03
2022-09-04T21:49:26.799Z,101703.16
2022-09-04T21:52:00.362Z,101700.63
2022-09-04T22:00:16.073Z,101705.91
2022-09-04T22:02:30.862Z,101713.16
2022-09-04T22:02:35.904Z,101714.13
2022-09-04T22:04:42.767Z,101705.16
2022-09-04T22:12:10.408Z,101709.78
2022-09-04T22:13:40.856Z,101712.56
2022-09-04T22:13:58.411Z,101713.75
2022-09-04T22:16:57.310Z,101715.59
2022-09-04T22:19:43.050Z,101718.25
2022-09-04T22:22:10.023Z,101723.16
2022-09-04T22:25:00.502Z,101718.28
2022-09-04T22:28:19.086Z,101723.22
2022-09-04T22:30:55.255Z,101728.44
2022-09-04T22:34:14.106Z,101725.25
2022-09-04T22:37:00.715Z,101723.47
2022-09-04T22:39:57.779Z,101724.88
2022-09-04T22:42:37.189Z,101729.22
2022-09-04T22:45:28.672Z,101729.06
2022-09-04T22:48:23.416Z,101733.47
2022-09-04T22:50:50.962Z,101732.38
2022-09-04T22:53:35.275Z,101733.53
2022-09-04T22:56:24.736Z,101737.69
2022-09-04T22:59:27.684Z,101733.75
2022-09-04T23:02:16.287Z,101729.63
2022-09-04T23:04:47.071Z,101737.06
2022-09-04T23:12:06.458Z,101738.88
2022-09-04T23:13:55.007Z,101739.59
2022-09-04T23:13:56.231Z,101737.81
2022-09-04T23:15:59.894Z,101733.06
2022-09-04T23:21:36.045Z,101733.16
2022-09-04T23:26:44.644Z,101734.56
2022-09-04T23:26:46.252Z,101732.75
2022-09-04T23:27:54.785Z,101737.44
2022-09-04T23:30:25.131Z,101730.28
2022-09-04T23:33:27.876Z,101741.59
2022-09-04T23:36:04.841Z,101742.34
2022-09-04T23:38:39.761Z,101739.47
2022-09-04T23:41:23.553Z,101742.88
2022-09-04T23:44:25.638Z,101731.38
2022-09-04T23:47:46.918Z,101738.72
2022-09-04T23:50:23.785Z,101724.44
2022-09-04T23:53:25.606Z,101732.56
2022-09-04T23:55:57.737Z,101732.75
2022-09-04T23:59:33.009Z,101740.88
